createdAt,value
2022-12-15T00:02:26.789Z,54.17
2022-12-15T00:05:12.397Z,49.47
2022-12-15T00:07:57.584Z,56.17
2022-12-15T00:10:43.300Z,51.87
2022-12-15T00:13:29.660Z,55.70
2022-12-15T00:16:15.622Z,56.17
2022-12-15T00:19:02.419Z,56.63
2022-12-15T00:21:47.969Z,53.80
2022-12-15T00:24:33.524Z,58.87
2022-12-15T00:27:19.139Z,54.33
2022-12-15T00:30:04.470Z,51.27
2022-12-15T00:32:49.939Z,52.37
2022-12-15T00:35:36.666Z,56.83
2022-12-15T00:38:26.738Z,54.10
2022-12-15T00:40:58.859Z,56.27
2022-12-15T00:43:27.216Z,53.13
2022-12-15T00:46:13.177Z,53.20
2022-12-15T00:48:41.888Z,54.70
2022-12-15T00:51:10.981Z,52.87
2022-12-15T00:53:57.009Z,57.77
2022-12-15T00:56:43.033Z,53.40
2022-12-15T00:59:28.540Z,53.50
2022-12-15T01:02:14.024Z,61.00
2022-12-15T01:04:59.535Z,54.30
2022-12-15T01:07:49.852Z,55.60
2022-12-15T01:10:36.408Z,55.37
2022-12-15T01:13:22.314Z,55.93
2022-12-15T01:16:08.032Z,57.47
2022-12-15T01:18:53.808Z,56.13
2022-12-15T01:21:24.729Z,58.07
2022-12-15T01:23:54.948Z,57.37
2022-12-15T01:26:23.116Z,64.40
2022-12-15T01:28:51.082Z,64.33
2022-12-15T01:31:19.114Z,48.17
2022-12-15T01:33:47.328Z,57.37
2022-12-15T01:36:15.269Z,54.93
2022-12-15T01:38:43.212Z,52.13
2022-12-15T01:41:12.551Z,61.93
2022-12-15T01:43:41.868Z,55.37
2022-12-15T01:46:12.442Z,50.17
2022-12-15T01:48:44.006Z,55.80
2022-12-15T01:51:19.409Z,49.23
2022-12-15T01:53:52.572Z,55.17
2022-12-15T01:56:24.313Z,49.30
2022-12-15T01:58:55.686Z,55.30
2022-12-15T02:01:24.295Z,54.93
2022-12-15T02:03:52.408Z,54.50
2022-12-15T02:06:22.702Z,52.33
2022-12-15T02:08:53.365Z,58.50
2022-12-15T02:11:44.987Z,56.77
2022-12-15T02:14:18.453Z,57.07
2022-12-15T02:17:15.404Z,52.57
2022-12-15T02:20:16.986Z,57.40
2022-12-15T02:23:06.233Z,55.80
2022-12-15T02:25:54.292Z,55.30
2022-12-15T02:28:36.279Z,59.33
2022-12-15T02:31:27.870Z,50.60
2022-12-15T02:34:01.632Z,60.30
2022-12-15T02:36:34.541Z,54.27
2022-12-15T02:39:02.939Z,55.37
2022-12-15T02:41:37.285Z,57.47
2022-12-15T02:44:10.572Z,51.97
2022-12-15T02:46:54.646Z,56.13
2022-12-15T02:49:29.549Z,54.00
2022-12-15T02:52:08.242Z,52.80
2022-12-15T02:54:50.661Z,51.67
2022-12-15T02:57:25.851Z,59.37
2022-12-15T02:59:58.655Z,58.17
2022-12-15T03:02:31.700Z,56.20
2022-12-15T03:05:00.194Z,56.93
2022-12-15T03:07:28.975Z,56.87
2022-12-15T03:09:58.363Z,64.40
2022-12-15T03:12:26.290Z,84.97
2022-12-15T03:14:54.530Z,64.37
2022-12-15T03:17:22.597Z,57.37
2022-12-15T03:19:51.863Z,57.00
2022-12-15T03:22:19.954Z,57.50
2022-12-15T03:24:48.290Z,54.93
2022-12-15T03:27:16.401Z,58.93
2022-12-15T03:29:44.323Z,59.67
2022-12-15T03:32:12.455Z,59.67
2022-12-15T03:34:40.366Z,55.03
2022-12-15T03:37:09.757Z,53.47
2022-12-15T03:39:37.679Z,60.30
2022-12-15T03:42:05.825Z,57.60
2022-12-15T03:44:33.748Z,62.07
2022-12-15T03:47:03.856Z,58.80
2022-12-15T03:49:32.025Z,61.03
2022-12-15T03:51:59.932Z,60.50
2022-12-15T03:54:29.398Z,59.63
2022-12-15T03:56:57.561Z,62.23
2022-12-15T03:59:25.439Z,65.03
2022-12-15T04:01:53.425Z,72.50
2022-12-15T04:04:21.437Z,51.10
2022-12-15T04:06:49.376Z,59.17
2022-12-15T04:09:17.329Z,61.53
2022-12-15T04:11:46.574Z,65.10
2022-12-15T04:14:14.642Z,54.53
2022-12-15T04:16:42.605Z,57.20
2022-12-15T04:19:27.893Z,68.30
2022-12-15T04:21:56.018Z,77.47
2022-12-15T04:24:41.443Z,60.53
2022-12-15T04:27:28.361Z,60.13
2022-12-15T04:30:13.683Z,66.27
2022-12-15T04:32:59.371Z,71.10
2022-12-15T04:35:44.842Z,62.37
2022-12-15T04:38:35.500Z,62.60
2022-12-15T04:41:21.053Z,59.43
2022-12-15T04:44:08.458Z,59.87
2022-12-15T04:46:54.001Z,61.30
2022-12-15T04:49:39.554Z,70.13
2022-12-15T04:52:25.156Z,77.23
2022-12-15T04:55:10.792Z,68.27
2022-12-15T04:57:56.334Z,68.20
2022-12-15T05:00:42.973Z,62.83
2022-12-15T05:03:28.481Z,66.27
2022-12-15T05:06:14.066Z,68.57
2022-12-15T05:08:59.509Z,69.53
2022-12-15T05:11:44.946Z,69.77
2022-12-15T05:14:30.322Z,63.63
2022-12-15T05:17:17.652Z,65.43
2022-12-15T05:20:03.450Z,59.30
2022-12-15T05:22:49.021Z,61.27
2022-12-15T05:25:34.677Z,61.27
2022-12-15T05:28:20.099Z,65.13
2022-12-15T05:31:05.778Z,68.50
2022-12-15T05:33:35.262Z,81.20
2022-12-15T05:36:03.206Z,65.73
2022-12-15T05:38:31.161Z,70.50
2022-12-15T05:40:59.385Z,59.67
2022-12-15T05:43:27.391Z,67.53
2022-12-15T05:45:55.410Z,64.23
2022-12-15T05:48:23.415Z,73.73
2022-12-15T05:50:52.695Z,68.27
2022-12-15T05:53:20.597Z,64.80
2022-12-15T05:55:48.520Z,67.87
2022-12-15T05:58:16.468Z,79.37
2022-12-15T06:00:44.341Z,76.50
2022-12-15T06:03:15.283Z,87.17
2022-12-15T06:05:43.550Z,68.47
2022-12-15T06:08:12.881Z,86.17
2022-12-15T06:10:40.785Z,62.80
2022-12-15T06:13:09.300Z,63.80
2022-12-15T06:15:37.240Z,70.90
2022-12-15T06:18:05.459Z,77.00
2022-12-15T06:20:33.380Z,71.93
2022-12-15T06:23:01.294Z,82.13
2022-12-15T06:25:30.569Z,82.40
2022-12-15T06:28:01.867Z,71.27
2022-12-15T06:30:30.194Z,72.80
2022-12-15T06:32:58.258Z,72.63
2022-12-15T06:35:26.152Z,80.63
2022-12-15T06:37:54.071Z,79.13
2022-12-15T06:40:21.951Z,74.53
2022-12-15T06:42:51.194Z,76.10
2022-12-15T06:45:19.082Z,80.27
2022-12-15T06:47:46.969Z,72.00
2022-12-15T06:50:14.967Z,72.03
2022-12-15T06:52:42.875Z,77.43
2022-12-15T06:55:11.620Z,75.63
2022-12-15T06:57:39.843Z,78.60
2022-12-15T07:00:10.851Z,75.47
2022-12-15T07:02:39.405Z,72.80
2022-12-15T07:05:08.355Z,93.40
2022-12-15T07:07:36.639Z,72.70
2022-12-15T07:10:04.926Z,72.70
2022-12-15T07:12:32.979Z,74.17
2022-12-15T07:15:01.054Z,69.93
2022-12-15T07:17:30.411Z,87.63
2022-12-15T07:19:58.363Z,77.53
2022-12-15T07:22:26.572Z,75.43
2022-12-15T07:24:54.465Z,76.50
2022-12-15T07:27:22.443Z,74.77
2022-12-15T07:29:50.410Z,81.03
2022-12-15T07:32:18.454Z,81.40
2022-12-15T07:34:47.693Z,75.67
2022-12-15T07:37:16.721Z,82.20
2022-12-15T07:39:44.609Z,80.57
2022-12-15T07:42:12.514Z,82.37
2022-12-15T07:44:40.803Z,77.87
2022-12-15T07:47:08.757Z,87.90
2022-12-15T07:49:36.686Z,84.23
2022-12-15T07:52:06.212Z,77.73
2022-12-15T07:54:34.460Z,84.17
2022-12-15T07:57:02.747Z,84.60
2022-12-15T07:59:30.636Z,75.53
2022-12-15T08:02:00.588Z,75.13
2022-12-15T08:04:28.741Z,78.67
2022-12-15T08:06:56.763Z,70.07
2022-12-15T08:09:26.394Z,74.67
2022-12-15T08:11:54.313Z,95.47
2022-12-15T08:14:22.527Z,92.00
2022-12-15T08:16:50.905Z,79.43
2022-12-15T08:19:19.087Z,84.03
2022-12-15T08:21:47.270Z,93.57
2022-12-15T08:24:16.519Z,98.20
2022-12-15T08:26:50.454Z,85.83
2022-12-15T08:29:50.136Z,79.70
2022-12-15T08:32:07.427Z,89.00
2022-12-15T08:34:35.699Z,109.33
2022-12-15T08:37:03.677Z,82.27
2022-12-15T08:39:32.387Z,74.50
2022-12-15T08:42:01.821Z,75.70
2022-12-15T08:44:29.850Z,84.70
2022-12-15T08:46:57.989Z,73.80
2022-12-15T08:49:26.114Z,75.30
2022-12-15T08:51:54.166Z,75.97
2022-12-15T08:54:22.217Z,74.10
2022-12-15T08:56:50.724Z,80.60
2022-12-15T08:59:20.153Z,92.47
2022-12-15T09:01:48.461Z,73.70
2022-12-15T09:04:16.714Z,76.30
2022-12-15T09:06:46.766Z,77.03
2022-12-15T09:09:19.153Z,81.53
2022-12-15T09:11:47.144Z,97.93
2022-12-15T09:14:15.479Z,124.27
2022-12-15T09:16:44.977Z,79.23
2022-12-15T09:19:13.075Z,83.20
2022-12-15T09:21:44.781Z,81.93
2022-12-15T09:24:23.184Z,70.67
2022-12-15T09:26:57.291Z,78.77
2022-12-15T09:29:25.609Z,101.80
2022-12-15T09:31:55.149Z,75.13
2022-12-15T09:34:23.080Z,77.53
2022-12-15T09:36:51.190Z,71.70
2022-12-15T09:39:19.405Z,69.83
2022-12-15T09:41:54.451Z,77.03
2022-12-15T09:44:24.947Z,77.17
2022-12-15T09:47:13.326Z,75.77
2022-12-15T09:49:55.649Z,77.63
2022-12-15T09:52:27.076Z,68.67
2022-12-15T09:54:55.526Z,79.13
2022-12-15T09:57:34.178Z,379.33
2022-12-15T10:00:15.354Z,79.20
2022-12-15T10:03:30.272Z,78.93
2022-12-15T10:06:17.682Z,72.07
2022-12-15T10:08:54.549Z,71.50
2022-12-15T10:11:41.869Z,75.53
2022-12-15T10:14:20.176Z,88.27
2022-12-15T10:16:59.369Z,70.53
2022-12-15T10:19:35.628Z,94.13
2022-12-15T10:22:03.815Z,68.83
2022-12-15T10:27:37.605Z,73.77
2022-12-15T10:30:09.164Z,67.40
2022-12-15T10:32:51.408Z,71.80
2022-12-15T10:35:24.232Z,72.63
2022-12-15T10:37:52.217Z,73.27
2022-12-15T10:40:41.887Z,74.63
2022-12-15T10:43:16.179Z,77.50
2022-12-15T10:45:44.508Z,73.73
2022-12-15T10:48:20.897Z,68.57
2022-12-15T10:50:50.429Z,72.80
2022-12-15T10:53:40.344Z,73.77
2022-12-15T10:56:09.385Z,71.43
2022-12-15T10:58:50.151Z,71.03
2022-12-15T11:01:20.793Z,69.77
2022-12-15T11:03:53.102Z,75.30
2022-12-15T11:06:26.698Z,65.87
2022-12-15T11:08:57.436Z,63.70
2022-12-15T11:11:50.244Z,68.20
2022-12-15T11:14:23.975Z,70.87
2022-12-15T11:16:54.701Z,70.37
2022-12-15T11:19:40.305Z,67.43
2022-12-15T11:22:19.026Z,68.43
2022-12-15T11:24:52.636Z,71.10
2022-12-15T11:27:27.669Z,61.47
2022-12-15T11:30:04.739Z,62.20
2022-12-15T11:32:35.797Z,60.97
2022-12-15T11:35:04.081Z,63.97
2022-12-15T11:37:43.670Z,63.40
2022-12-15T11:40:35.775Z,70.40
2022-12-15T11:43:44.371Z,61.37
2022-12-15T11:46:22.224Z,55.77
2022-12-15T11:49:21.619Z,78.60
2022-12-15T11:51:54.665Z,70.90
2022-12-15T11:54:29.728Z,61.00
2022-12-15T11:57:06.038Z,58.67
2022-12-15T11:59:49.526Z,59.67
2022-12-15T12:02:37.210Z,63.67
2022-12-15T12:05:30.768Z,59.77
2022-12-15T12:08:15.121Z,62.50
2022-12-15T12:10:54.228Z,62.23
2022-12-15T12:13:31.529Z,60.00
2022-12-15T12:16:10.800Z,62.20
2022-12-15T12:18:43.411Z,59.17
2022-12-15T12:21:16.079Z,56.37
2022-12-15T12:23:50.801Z,56.50
2022-12-15T12:26:24.913Z,60.93
2022-12-15T12:28:59.223Z,58.13
2022-12-15T12:31:35.575Z,69.77
2022-12-15T12:34:10.902Z,67.73
2022-12-15T12:36:39.571Z,61.43
2022-12-15T12:39:15.143Z,75.10
2022-12-15T12:41:50.733Z,62.53
2022-12-15T12:44:27.750Z,60.33
2022-12-15T12:47:01.953Z,63.90
2022-12-15T12:49:32.779Z,62.87
2022-12-15T12:52:03.744Z,64.00
2022-12-15T12:54:44.561Z,61.97
2022-12-15T12:57:39.323Z,67.00
2022-12-15T13:00:17.551Z,62.67
2022-12-15T13:03:10.175Z,64.80
2022-12-15T13:05:39.919Z,57.70
2022-12-15T13:08:46.110Z,62.57
2022-12-15T13:11:55.237Z,65.17
2022-12-15T13:14:44.567Z,72.20
2022-12-15T13:17:26.912Z,58.73
2022-12-15T13:20:19.185Z,65.43
2022-12-15T13:22:48.776Z,57.70
2022-12-15T13:25:36.681Z,101.97
2022-12-15T13:28:20.294Z,71.80
2022-12-15T13:31:15.678Z,62.57
2022-12-15T13:33:53.974Z,69.73
2022-12-15T13:36:47.023Z,70.83
2022-12-15T13:39:56.069Z,60.13
2022-12-15T13:42:40.815Z,52.20
2022-12-15T13:45:45.220Z,57.27
2022-12-15T13:48:31.654Z,82.60
2022-12-15T13:51:06.481Z,75.60
2022-12-15T13:53:42.271Z,58.77
2022-12-15T13:56:26.340Z,66.97
2022-12-15T13:59:01.615Z,63.07
2022-12-15T14:01:33.149Z,57.03
2022-12-15T14:04:08.427Z,64.53
2022-12-15T14:06:39.613Z,59.03
2022-12-15T14:09:13.949Z,63.67
2022-12-15T14:11:53.123Z,60.80
2022-12-15T14:14:25.751Z,56.50
2022-12-15T14:16:58.586Z,70.93
2022-12-15T14:19:32.024Z,62.10
2022-12-15T14:22:03.782Z,68.10
2022-12-15T14:24:39.023Z,59.67
2022-12-15T14:27:07.761Z,60.33
2022-12-15T14:29:35.876Z,60.77
2022-12-15T14:32:04.508Z,58.67
2022-12-15T14:34:39.101Z,59.50
2022-12-15T14:37:11.681Z,58.67
2022-12-15T14:39:43.641Z,61.83
2022-12-15T14:42:17.096Z,62.73
2022-12-15T14:47:36.521Z,64.47
2022-12-15T14:50:12.733Z,61.40
2022-12-15T14:52:42.676Z,64.67
2022-12-15T14:55:36.424Z,57.27
2022-12-15T14:58:23.506Z,62.87
2022-12-15T15:00:53.496Z,60.77
2022-12-15T15:03:25.100Z,61.87
2022-12-15T15:05:58.186Z,58.00
2022-12-15T15:08:29.824Z,58.10
2022-12-15T15:11:01.807Z,61.23
2022-12-15T15:13:39.728Z,65.17
2022-12-15T15:16:14.648Z,62.83
2022-12-15T15:18:44.369Z,73.83
2022-12-15T15:21:19.199Z,63.13
2022-12-15T15:23:59.280Z,64.30
2022-12-15T15:26:27.673Z,76.87
2022-12-15T15:28:55.806Z,76.97
2022-12-15T15:31:41.061Z,73.53
2022-12-15T15:34:11.326Z,74.83
2022-12-15T15:36:40.964Z,104.20
2022-12-15T15:39:15.294Z,103.87
2022-12-15T15:41:43.604Z,81.60
2022-12-15T15:44:14.594Z,75.93
2022-12-15T15:46:47.820Z,84.00
2022-12-15T15:49:18.819Z,73.90
2022-12-15T15:51:48.221Z,82.23
2022-12-15T15:54:19.118Z,77.60
2022-12-15T15:56:47.178Z,89.10
2022-12-15T15:59:18.171Z,92.53
2022-12-15T16:01:50.854Z,97.70
2022-12-15T16:04:18.946Z,102.33
2022-12-15T16:06:48.311Z,93.33
2022-12-15T16:09:17.759Z,88.67
2022-12-15T16:11:46.804Z,90.70
2022-12-15T16:14:16.644Z,106.40
2022-12-15T16:16:45.130Z,89.37
2022-12-15T16:19:13.185Z,115.13
2022-12-15T16:21:41.886Z,91.77
2022-12-15T16:24:16.915Z,88.50
2022-12-15T16:26:48.698Z,88.80
2022-12-15T16:29:18.500Z,86.57
2022-12-15T16:31:46.668Z,88.33
2022-12-15T16:34:16.296Z,83.37
2022-12-15T16:36:44.655Z,84.50
2022-12-15T16:39:26.471Z,78.47
2022-12-15T16:41:55.603Z,75.83
2022-12-15T16:44:23.907Z,79.73
2022-12-15T16:46:52.058Z,82.20
2022-12-15T16:49:20.167Z,86.43
2022-12-15T16:51:51.392Z,75.40
2022-12-15T16:54:23.161Z,77.63
2022-12-15T16:56:52.029Z,80.23
2022-12-15T16:59:32.988Z,83.67
2022-12-15T17:02:02.263Z,81.77
2022-12-15T17:04:30.435Z,73.20
2022-12-15T17:06:58.365Z,80.23
2022-12-15T17:09:27.786Z,71.27
2022-12-15T17:11:56.100Z,87.23
2022-12-15T17:14:24.742Z,76.57
2022-12-15T17:16:52.656Z,77.13
2022-12-15T17:19:21.474Z,76.03
2022-12-15T17:21:53.225Z,75.77
2022-12-15T17:24:22.773Z,80.07
2022-12-15T17:26:52.354Z,82.97
2022-12-15T17:29:22.408Z,83.40
2022-12-15T17:31:50.597Z,73.90
2022-12-15T17:34:28.332Z,81.50
2022-12-15T17:36:56.337Z,75.03
2022-12-15T17:39:24.452Z,75.23
2022-12-15T17:42:02.697Z,78.50
2022-12-15T17:44:34.943Z,88.60
2022-12-15T17:47:06.154Z,72.60
2022-12-15T17:49:37.282Z,80.83
2022-12-15T17:52:17.248Z,75.83
2022-12-15T17:54:45.469Z,80.97
2022-12-15T17:57:14.729Z,81.27
2022-12-15T17:59:42.697Z,76.53
2022-12-15T18:02:14.937Z,81.17
2022-12-15T18:04:43.822Z,84.83
2022-12-15T18:07:18.002Z,78.47
2022-12-15T18:09:46.299Z,79.70
2022-12-15T18:12:24.372Z,92.33
2022-12-15T18:14:53.239Z,79.40
2022-12-15T18:17:21.844Z,86.97
2022-12-15T18:19:53.891Z,72.60
2022-12-15T18:22:24.035Z,81.47
2022-12-15T18:24:54.290Z,83.63
2022-12-15T18:27:26.485Z,80.40
2022-12-15T18:29:54.918Z,81.80
2022-12-15T18:32:25.749Z,82.80
2022-12-15T18:34:55.171Z,91.07
2022-12-15T18:37:25.747Z,93.57
2022-12-15T18:39:58.251Z,97.60
2022-12-15T18:42:32.083Z,87.47
2022-12-15T18:45:02.251Z,89.67
2022-12-15T18:47:30.268Z,103.80
2022-12-15T18:49:58.322Z,99.00
2022-12-15T18:52:31.461Z,98.87
2022-12-15T18:55:03.221Z,96.00
2022-12-15T18:57:36.550Z,93.03
2022-12-15T19:00:17.273Z,94.80
2022-12-15T19:02:45.812Z,99.47
2022-12-15T19:05:33.413Z,108.37
2022-12-15T19:08:04.267Z,106.93
2022-12-15T19:10:35.138Z,97.60
2022-12-15T19:13:04.614Z,100.50
2022-12-15T19:15:32.562Z,122.27
2022-12-15T19:18:17.962Z,109.30
2022-12-15T19:21:03.657Z,103.47
2022-12-15T19:23:31.912Z,103.40
2022-12-15T19:26:00.303Z,118.23
2022-12-15T19:28:29.570Z,109.23
2022-12-15T19:30:57.470Z,108.63
2022-12-15T19:33:25.573Z,123.20
2022-12-15T19:35:55.423Z,104.77
2022-12-15T19:38:27.273Z,112.00
2022-12-15T19:40:56.461Z,114.53
2022-12-15T19:43:25.194Z,126.80
2022-12-15T19:45:55.074Z,120.80
2022-12-15T19:48:24.264Z,121.63
2022-12-15T19:50:54.990Z,103.53
2022-12-15T19:53:26.726Z,111.60
2022-12-15T19:55:56.420Z,108.20
2022-12-15T19:58:29.767Z,119.63
2022-12-15T20:01:00.629Z,125.13
2022-12-15T20:03:30.605Z,113.10
2022-12-15T20:06:00.099Z,120.63
2022-12-15T20:08:30.327Z,124.93
2022-12-15T20:10:58.302Z,107.20
2022-12-15T20:13:26.973Z,104.43
2022-12-15T20:15:55.336Z,108.33
2022-12-15T20:18:24.577Z,102.50
2022-12-15T20:20:52.600Z,106.77
2022-12-15T20:23:23.620Z,95.80
2022-12-15T20:25:51.640Z,115.77
2022-12-15T20:28:21.989Z,114.47
2022-12-15T20:30:50.620Z,108.60
2022-12-15T20:33:18.905Z,108.10
2022-12-15T20:35:50.270Z,102.50
2022-12-15T20:38:24.488Z,100.90
2022-12-15T20:40:53.260Z,107.63
2022-12-15T20:43:22.586Z,131.57
2022-12-15T20:45:58.098Z,105.80
2022-12-15T20:48:26.840Z,105.63
2022-12-15T20:50:56.381Z,115.67
2022-12-15T20:53:26.401Z,115.40
2022-12-15T20:55:56.174Z,113.23
2022-12-15T20:58:29.734Z,126.90
2022-12-15T21:01:01.100Z,115.30
2022-12-15T21:03:31.851Z,113.17
2022-12-15T21:06:01.518Z,123.03
2022-12-15T21:08:31.500Z,119.27
2022-12-15T21:11:03.054Z,118.27
2022-12-15T21:13:35.335Z,114.63
2022-12-15T21:16:03.643Z,132.03
2022-12-15T21:21:26.651Z,117.50
2022-12-15T21:23:55.408Z,121.30
2022-12-15T21:26:24.956Z,128.70
2022-12-15T21:28:56.904Z,118.57
2022-12-15T21:31:25.221Z,115.60
2022-12-15T21:33:53.380Z,125.00
2022-12-15T21:36:24.194Z,124.30
2022-12-15T21:38:53.242Z,121.07
2022-12-15T21:41:24.546Z,138.93
2022-12-15T21:43:52.694Z,126.60
2022-12-15T21:46:28.837Z,111.90
2022-12-15T21:49:14.879Z,125.23
2022-12-15T21:51:47.745Z,130.07
2022-12-15T21:54:19.226Z,120.93
2022-12-15T21:56:48.460Z,137.10
2022-12-15T21:59:18.296Z,119.10
2022-12-15T22:01:46.367Z,169.57
2022-12-15T22:04:18.943Z,147.03
2022-12-15T22:06:50.941Z,161.43
2022-12-15T22:09:19.494Z,161.20
2022-12-15T22:11:49.744Z,142.73
2022-12-15T22:14:24.633Z,167.27
2022-12-15T22:16:52.892Z,170.67
2022-12-15T22:19:21.025Z,152.80
2022-12-15T22:21:50.393Z,185.10
2022-12-15T22:24:18.741Z,191.73
2022-12-15T22:26:47.749Z,211.53
2022-12-15T22:29:18.448Z,194.70
2022-12-15T22:31:46.852Z,160.03
2022-12-15T22:34:16.853Z,156.53
2022-12-15T22:36:44.783Z,224.53
2022-12-15T22:39:14.905Z,231.53
2022-12-15T22:41:45.279Z,175.67
2022-12-15T22:44:18.164Z,174.07
2022-12-15T22:46:46.465Z,214.37
2022-12-15T22:49:16.636Z,159.70
2022-12-15T22:51:44.670Z,160.17
2022-12-15T22:54:19.218Z,163.50
2022-12-15T22:56:49.644Z,157.70
2022-12-15T22:59:25.158Z,162.43
2022-12-15T23:01:53.110Z,159.53
2022-12-15T23:04:23.095Z,125.17
2022-12-15T23:06:51.683Z,125.93
2022-12-15T23:09:21.153Z,132.57
2022-12-15T23:11:48.314Z,107.13
2022-12-15T23:14:17.929Z,102.33
2022-12-15T23:16:46.195Z,94.93
2022-12-15T23:19:23.693Z,101.80
2022-12-15T23:21:51.910Z,95.63
2022-12-15T23:24:21.210Z,85.73
2022-12-15T23:26:49.120Z,76.93
2022-12-15T23:29:17.526Z,76.17
2022-12-15T23:31:45.586Z,74.10
2022-12-15T23:34:13.682Z,82.70
2022-12-15T23:36:41.603Z,75.00
2022-12-15T23:39:09.537Z,85.83
2022-12-15T23:41:38.814Z,71.43
2022-12-15T23:44:06.979Z,76.07
2022-12-15T23:46:34.946Z,71.67
2022-12-15T23:49:02.897Z,74.63
2022-12-15T23:51:30.809Z,70.87
2022-12-15T23:53:58.703Z,70.13
2022-12-15T23:56:27.103Z,62.90
2022-12-15T23:58:59.044Z,75.03
